createdAt,value
2022-10-25T00:00:52.152Z,108082.81
2022-10-25T00:03:19.552Z,107822.44
2022-10-25T00:05:48.087Z,107822.44
2022-10-25T00:08:15.594Z,107822.44
2022-10-25T00:10:43.056Z,107822.44
2022-10-25T00:13:11.787Z,107301.72
2022-10-25T00:15:39.321Z,107301.72
2022-10-25T00:18:06.955Z,107301.72
2022-10-25T00:20:36.931Z,107562.06
2022-10-25T00:23:04.374Z,107562.06
2022-10-25T00:25:31.754Z,107562.06
2022-10-25T00:27:59.161Z,107301.72
2022-10-25T00:30:27.747Z,107301.72
2022-10-25T00:32:58.630Z,107301.72
2022-10-25T00:35:26.330Z,107562.06
2022-10-25T00:37:53.916Z,107562.06
2022-10-25T00:40:21.463Z,107562.06
2022-10-25T00:42:49.048Z,107562.06
2022-10-25T00:45:16.656Z,107301.72
2022-10-25T00:47:48.612Z,107301.72
2022-10-25T00:50:25.425Z,107301.72
2022-10-25T00:52:56.138Z,107301.72
2022-10-25T00:55:26.563Z,107041.38
2022-10-25T00:58:00.956Z,107041.38
2022-10-25T01:00:28.657Z,107041.38
2022-10-25T01:05:24.119Z,107041.38
2022-10-25T01:07:54.373Z,107301.72
2022-10-25T01:10:21.714Z,107301.72
2022-10-25T01:12:51.989Z,107301.72
2022-10-25T01:15:24.969Z,107041.38
2022-10-25T01:18:09.658Z,107041.38
2022-10-25T01:20:58.932Z,107041.38
2022-10-25T01:23:36.221Z,107041.38
2022-10-25T01:26:22.914Z,106781.06
2022-10-25T01:29:13.106Z,106781.06
2022-10-25T01:31:45.425Z,106781.06
2022-10-25T01:34:28.719Z,106520.78
2022-10-25T01:37:09.490Z,106520.78
2022-10-25T01:39:56.067Z,106520.78
2022-10-25T01:42:47.404Z,106520.78
2022-10-25T01:45:24.041Z,106520.78
2022-10-25T01:47:56.284Z,106520.78
2022-10-25T01:50:31.148Z,106520.78
2022-10-25T01:52:59.055Z,106520.78
2022-10-25T01:55:54.754Z,106520.78
2022-10-25T01:58:50.471Z,106520.78
2022-10-25T02:01:29.593Z,106520.78
2022-10-25T02:04:30.276Z,106520.78
2022-10-25T02:07:35.887Z,106520.78
2022-10-25T02:10:09.871Z,106260.50
2022-10-25T02:13:00.327Z,106000.25
2022-10-25T02:15:40.939Z,106000.25
2022-10-25T02:18:14.389Z,106000.25
2022-10-25T02:20:46.630Z,106000.25
2022-10-25T02:23:17.580Z,106000.25
2022-10-25T02:25:45.616Z,105740.00
2022-10-25T02:28:16.182Z,105740.00
2022-10-25T02:30:44.587Z,105740.00
2022-10-25T02:33:12.318Z,105479.81
2022-10-25T02:35:39.990Z,105479.81
2022-10-25T02:38:07.797Z,105479.81
2022-10-25T02:40:36.317Z,105219.59
2022-10-25T02:47:05.329Z,105479.81
2022-10-25T02:49:32.887Z,105479.81
2022-10-25T02:52:00.429Z,105479.81
2022-10-25T02:54:29.071Z,105479.81
2022-10-25T02:56:56.464Z,105219.59
2022-10-25T02:59:24.407Z,105219.59
2022-10-25T03:01:51.882Z,105219.59
2022-10-25T03:04:19.267Z,105219.59
2022-10-25T03:06:46.811Z,105219.59
2022-10-25T03:09:16.348Z,105219.59
2022-10-25T03:11:43.750Z,105219.59
2022-10-25T03:14:11.047Z,105219.59
2022-10-25T03:16:38.606Z,105479.81
2022-10-25T03:19:06.146Z,105479.81
2022-10-25T03:21:34.338Z,105479.81
2022-10-25T03:24:03.305Z,105479.81
2022-10-25T03:26:31.113Z,105479.81
2022-10-25T03:28:58.689Z,105479.81
2022-10-25T03:31:26.328Z,105479.81
2022-10-25T03:33:54.041Z,105479.81
2022-10-25T03:36:21.352Z,105479.81
2022-10-25T03:38:48.891Z,105219.59
2022-10-25T03:41:16.260Z,105219.59
2022-10-25T03:43:43.753Z,105219.59
2022-10-25T03:46:11.331Z,105219.59
2022-10-25T03:48:38.707Z,105479.81
2022-10-25T03:51:06.298Z,106000.25
2022-10-25T03:53:33.876Z,106000.25
2022-10-25T03:56:01.337Z,104959.44
2022-10-25T03:58:28.764Z,103918.91
2022-10-25T04:00:56.461Z,103138.75
2022-10-25T04:03:24.239Z,102358.75
2022-10-25T04:05:51.618Z,101838.84
2022-10-25T04:08:19.262Z,101319.00
2022-10-25T04:10:47.334Z,100539.41
2022-10-25T04:13:15.039Z,100019.78
2022-10-25T04:15:42.389Z,99500.22
2022-10-25T04:18:09.918Z,98980.75
2022-10-25T04:20:37.648Z,98201.69
2022-10-25T04:23:05.838Z,97682.41
2022-10-25T04:25:33.329Z,97163.19
2022-10-25T04:28:00.688Z,97163.19
2022-10-25T04:30:29.330Z,97163.19
2022-10-25T04:32:58.537Z,97942.03
2022-10-25T04:35:25.882Z,98721.03
2022-10-25T04:37:57.336Z,98721.03
2022-10-25T04:40:25.591Z,98980.75
2022-10-25T04:42:52.839Z,99500.22
2022-10-25T04:45:20.438Z,99760.00
2022-10-25T04:47:47.811Z,100019.78
2022-10-25T04:50:15.259Z,100539.41
2022-10-25T04:52:43.938Z,100799.25
2022-10-25T04:55:11.470Z,101059.13
2022-10-25T04:57:39.889Z,101319.00
2022-10-25T05:00:08.099Z,101059.13
2022-10-25T05:02:36.607Z,101059.13
2022-10-25T05:05:05.634Z,101059.13
2022-10-25T05:07:33.080Z,101319.00
2022-10-25T05:10:00.388Z,101059.13
2022-10-25T05:12:27.870Z,99760.00
2022-10-25T05:14:55.314Z,98980.75
2022-10-25T05:17:22.793Z,98461.34
2022-10-25T05:19:50.466Z,97422.78
2022-10-25T05:22:17.827Z,96125.00
2022-10-25T05:24:45.563Z,94568.31
2022-10-25T05:27:12.870Z,92234.59
2022-10-25T05:29:40.320Z,89902.44
2022-10-25T05:32:07.919Z,87830.75
2022-10-25T05:34:35.231Z,86536.56
2022-10-25T05:37:02.598Z,86795.38
2022-10-25T05:39:30.032Z,88089.66
2022-10-25T05:41:57.489Z,89643.41
2022-10-25T05:44:24.970Z,90679.66
2022-10-25T05:46:52.508Z,91975.41
2022-10-25T05:49:20.050Z,93012.34
2022-10-25T05:51:47.528Z,93530.91
2022-10-25T05:54:16.569Z,93790.25
2022-10-25T05:56:44.118Z,94827.72
2022-10-25T05:59:14.376Z,95606.03
2022-10-25T06:01:44.873Z,96384.53
2022-10-25T06:04:13.496Z,96903.63
2022-10-25T06:06:42.614Z,97163.19
2022-10-25T06:09:10.903Z,97422.78
2022-10-25T06:11:38.918Z,97422.78
2022-10-25T06:14:06.451Z,96644.06
2022-10-25T06:16:34.123Z,96644.06
2022-10-25T06:19:01.481Z,97422.78
2022-10-25T06:21:29.975Z,97422.78
2022-10-25T06:23:59.050Z,96644.06
2022-10-25T06:26:28.727Z,96125.00
2022-10-25T06:28:59.101Z,95606.03
2022-10-25T06:31:27.851Z,96125.00
2022-10-25T06:33:55.697Z,97422.78
2022-10-25T06:36:24.897Z,98980.75
2022-10-25T06:38:52.574Z,101059.13
2022-10-25T06:41:25.170Z,102098.78
2022-10-25T06:43:52.640Z,103138.75
2022-10-25T06:46:23.039Z,104699.28
2022-10-25T06:48:52.649Z,105740.00
2022-10-25T06:51:21.591Z,106520.78
2022-10-25T06:53:55.054Z,107562.06
2022-10-25T06:56:23.200Z,108603.66
2022-10-25T06:58:51.227Z,109385.06
2022-10-25T07:01:20.454Z,109906.06
2022-10-25T07:03:50.398Z,109385.06
2022-10-25T07:06:23.406Z,108603.66
2022-10-25T07:08:53.295Z,108343.22
2022-10-25T07:11:21.194Z,108864.09
2022-10-25T07:13:49.062Z,109645.56
2022-10-25T07:16:22.672Z,109385.06
2022-10-25T07:18:50.169Z,109906.06
2022-10-25T07:21:22.593Z,109385.06
2022-10-25T07:23:51.023Z,108603.66
2022-10-25T07:26:30.946Z,107822.44
2022-10-25T07:29:00.281Z,107041.38
2022-10-25T07:31:33.366Z,106520.78
2022-10-25T07:34:02.288Z,105479.81
2022-10-25T07:36:30.363Z,103918.91
2022-10-25T07:38:58.071Z,102618.72
2022-10-25T07:41:26.281Z,102098.78
2022-10-25T07:43:53.649Z,100799.25
2022-10-25T07:46:21.684Z,100019.78
2022-10-25T07:48:48.960Z,98461.34
2022-10-25T07:51:17.595Z,97682.41
2022-10-25T07:53:45.218Z,96644.06
2022-10-25T07:56:17.518Z,95606.03
2022-10-25T07:58:48.364Z,95346.59
2022-10-25T08:01:21.474Z,95087.13
2022-10-25T08:03:49.599Z,96125.00
2022-10-25T08:06:17.274Z,97163.19
2022-10-25T08:08:45.105Z,96644.06
2022-10-25T08:11:12.429Z,95865.50
2022-10-25T08:13:39.890Z,95865.50
2022-10-25T08:16:08.043Z,96125.00
2022-10-25T08:18:35.758Z,95865.50
2022-10-25T08:21:04.541Z,95606.03
2022-10-25T08:23:33.438Z,95346.59
2022-10-25T08:26:01.579Z,95346.59
2022-10-25T08:28:31.427Z,94568.31
2022-10-25T08:31:01.440Z,95865.50
2022-10-25T08:33:29.755Z,93790.25
2022-10-25T08:36:01.060Z,93790.25
2022-10-25T08:38:28.808Z,93790.25
2022-10-25T08:41:40.374Z,94568.31
2022-10-25T08:44:39.520Z,95087.13
2022-10-25T08:47:27.279Z,95346.59
2022-10-25T08:50:03.414Z,95346.59
2022-10-25T08:52:45.918Z,95606.03
2022-10-25T08:55:17.013Z,95606.03
2022-10-25T08:57:47.568Z,95606.03
2022-10-25T09:00:23.964Z,95346.59
2022-10-25T09:02:53.013Z,95087.13
2022-10-25T09:05:41.074Z,96125.00
2022-10-25T09:08:11.401Z,96644.06
2022-10-25T09:10:55.542Z,96903.63
2022-10-25T09:13:53.318Z,96384.53
2022-10-25T09:16:41.012Z,95346.59
2022-10-25T09:19:55.948Z,93790.25
2022-10-25T09:22:29.398Z,93271.63
2022-10-25T09:25:02.103Z,92753.06
2022-10-25T09:27:39.491Z,92234.59
2022-10-25T09:30:09.770Z,92234.59
2022-10-25T09:32:42.027Z,94308.94
2022-10-25T09:35:15.261Z,96384.53
2022-10-25T09:37:49.551Z,97942.03
2022-10-25T09:40:28.977Z,98721.03
2022-10-25T09:43:02.195Z,99240.47
2022-10-25T09:45:33.308Z,99500.22
2022-10-25T09:48:05.352Z,99500.22
2022-10-25T09:50:42.873Z,99760.00
2022-10-25T09:53:16.443Z,99240.47
2022-10-25T09:55:52.291Z,98980.75
2022-10-25T09:58:32.583Z,98721.03
2022-10-25T10:01:04.775Z,97942.03
2022-10-25T10:03:36.011Z,97163.19
2022-10-25T10:06:15.060Z,96644.06
2022-10-25T10:08:51.574Z,96384.53
2022-10-25T10:11:20.560Z,96644.06
2022-10-25T10:13:54.762Z,96384.53
2022-10-25T10:17:01.036Z,95865.50
2022-10-25T10:19:32.501Z,95346.59
2022-10-25T10:22:08.887Z,94049.59
2022-10-25T10:24:40.910Z,93790.25
2022-10-25T10:27:34.899Z,93012.34
2022-10-25T10:30:06.870Z,92493.81
2022-10-25T10:35:26.235Z,92234.59
2022-10-25T10:37:53.741Z,91457.03
2022-10-25T10:40:21.322Z,91716.22
2022-10-25T10:47:21.963Z,93012.34
2022-10-25T10:49:53.141Z,93012.34
2022-10-25T10:52:42.320Z,93790.25
2022-10-25T10:55:31.596Z,94049.59
2022-10-25T10:58:31.662Z,94049.59
2022-10-25T11:01:11.495Z,94308.94
2022-10-25T11:03:48.994Z,94049.59
2022-10-25T11:06:34.889Z,95346.59
2022-10-25T11:09:18.350Z,94827.72
2022-10-25T11:11:46.089Z,95087.13
2022-10-25T11:14:17.110Z,94827.72
2022-10-25T11:17:08.829Z,94308.94
2022-10-25T11:19:59.211Z,94308.94
2022-10-25T11:22:53.693Z,94308.94
2022-10-25T11:25:25.550Z,94568.31
2022-10-25T11:28:01.897Z,94308.94
2022-10-25T11:30:42.852Z,93790.25
2022-10-25T11:33:30.213Z,93790.25
2022-10-25T11:36:13.208Z,94308.94
2022-10-25T11:39:04.144Z,94308.94
2022-10-25T11:41:45.449Z,94568.31
2022-10-25T11:44:23.459Z,94568.31
2022-10-25T11:47:17.830Z,94568.31
2022-10-25T11:50:12.486Z,94568.31
2022-10-25T11:52:46.025Z,94049.59
2022-10-25T11:55:36.831Z,93530.91
2022-10-25T11:58:35.433Z,93012.34
2022-10-25T12:01:36.871Z,93530.91
2022-10-25T12:04:19.472Z,93530.91
2022-10-25T12:07:09.267Z,92753.06
2022-10-25T12:10:24.643Z,91716.22
2022-10-25T12:12:57.033Z,91716.22
2022-10-25T12:15:46.280Z,91197.91
2022-10-25T12:18:17.631Z,91197.91
2022-10-25T12:20:47.776Z,90679.66
2022-10-25T12:23:18.968Z,89643.41
2022-10-25T12:25:50.549Z,89384.41
2022-10-25T12:28:36.159Z,90161.50
2022-10-25T12:31:16.021Z,91457.03
2022-10-25T12:34:12.592Z,91716.22
2022-10-25T12:37:23.371Z,91716.22
2022-10-25T12:39:52.269Z,91197.91
2022-10-25T12:42:31.059Z,90938.78
2022-10-25T12:45:20.140Z,90679.66
2022-10-25T12:48:02.782Z,90679.66
2022-10-25T12:50:45.491Z,90420.56
2022-10-25T12:53:31.099Z,89384.41
2022-10-25T12:56:03.331Z,90420.56
2022-10-25T12:58:59.581Z,91457.03
2022-10-25T13:01:30.091Z,89643.41
2022-10-25T13:04:10.303Z,91457.03
2022-10-25T13:06:44.712Z,91975.41
2022-10-25T13:09:21.012Z,93012.34
2022-10-25T13:12:11.650Z,93790.25
2022-10-25T13:14:45.506Z,94827.72
2022-10-25T13:17:19.254Z,93012.34
2022-10-25T13:20:14.227Z,91716.22
2022-10-25T13:22:45.420Z,91197.91
2022-10-25T13:25:12.801Z,91975.41
2022-10-25T13:28:01.008Z,93012.34
2022-10-25T13:30:32.160Z,92493.81
2022-10-25T13:33:24.071Z,92234.59
2022-10-25T13:35:51.495Z,92493.81
2022-10-25T13:38:25.507Z,92493.81
2022-10-25T13:41:18.666Z,92493.81
2022-10-25T13:44:05.677Z,92753.06
2022-10-25T13:46:42.991Z,93012.34
2022-10-25T13:49:38.261Z,92234.59
2022-10-25T13:52:20.423Z,92234.59
2022-10-25T13:54:54.771Z,92234.59
2022-10-25T13:57:45.485Z,92234.59
2022-10-25T14:00:36.030Z,92234.59
2022-10-25T14:03:09.965Z,92493.81
2022-10-25T14:05:55.786Z,91975.41
2022-10-25T14:08:45.292Z,92234.59
2022-10-25T14:11:44.402Z,92493.81
2022-10-25T14:14:52.353Z,92493.81
2022-10-25T14:17:45.041Z,92493.81
2022-10-25T14:20:30.434Z,93530.91
2022-10-25T14:23:13.107Z,94308.94
2022-10-25T14:25:42.807Z,95087.13
2022-10-25T14:28:10.331Z,95606.03
2022-10-25T14:30:47.657Z,95346.59
2022-10-25T14:33:39.302Z,95606.03
2022-10-25T14:44:03.335Z,95865.50
2022-10-25T14:46:31.155Z,95346.59
2022-10-25T14:49:01.210Z,95087.13
2022-10-25T14:51:32.047Z,95087.13
2022-10-25T14:54:04.352Z,95087.13
2022-10-25T14:56:41.566Z,94827.72
2022-10-25T14:59:42.470Z,94827.72
2022-10-25T15:02:24.607Z,94568.31
2022-10-25T15:04:56.835Z,94308.94
2022-10-25T15:07:25.832Z,94568.31
2022-10-25T15:09:56.370Z,94568.31
2022-10-25T15:12:26.369Z,94568.31
2022-10-25T15:14:55.572Z,94568.31
2022-10-25T15:17:22.832Z,94308.94
2022-10-25T15:20:06.866Z,94049.59
2022-10-25T15:22:47.146Z,94308.94
2022-10-25T15:25:24.186Z,94049.59
2022-10-25T15:27:54.872Z,94308.94
2022-10-25T15:30:43.584Z,94049.59
2022-10-25T15:33:16.173Z,94049.59
2022-10-25T15:35:48.935Z,94049.59
2022-10-25T15:38:19.652Z,94049.59
2022-10-25T15:40:48.275Z,94049.59
2022-10-25T15:43:15.785Z,93790.25
2022-10-25T15:45:44.927Z,94049.59
2022-10-25T15:48:20.400Z,94308.94
2022-10-25T15:50:57.365Z,94568.31
2022-10-25T15:53:26.018Z,94568.31
2022-10-25T15:55:55.015Z,94568.31
2022-10-25T15:58:22.753Z,94308.94
2022-10-25T16:00:54.157Z,94308.94
2022-10-25T16:03:24.620Z,94568.31
2022-10-25T16:05:52.755Z,94568.31
2022-10-25T16:08:20.349Z,94568.31
2022-10-25T16:10:48.162Z,94568.31
2022-10-25T16:13:29.653Z,94568.31
2022-10-25T16:15:58.113Z,94568.31
2022-10-25T16:18:26.901Z,96125.00
2022-10-25T16:20:57.832Z,100799.25
2022-10-25T16:23:27.039Z,103658.84
2022-10-25T16:25:56.322Z,104179.03
2022-10-25T16:30:51.335Z,102098.78
2022-10-25T16:33:18.805Z,101319.00
2022-10-25T16:35:46.315Z,100799.25
2022-10-25T16:38:15.675Z,100279.59
2022-10-25T16:40:43.121Z,100539.41
2022-10-25T16:43:12.395Z,104699.28
2022-10-25T16:45:40.020Z,105740.00
2022-10-25T16:48:07.655Z,105740.00
2022-10-25T16:50:35.960Z,105479.81
2022-10-25T16:53:07.267Z,105219.59
2022-10-25T16:55:35.191Z,104699.28
2022-10-25T16:58:03.237Z,104439.13
2022-10-25T17:00:35.795Z,104179.03
2022-10-25T17:03:04.062Z,103918.91
2022-10-25T17:05:33.504Z,103398.78
2022-10-25T17:08:01.096Z,102878.72
2022-10-25T17:10:28.923Z,102618.72
2022-10-25T17:13:06.357Z,102098.78
2022-10-25T17:15:33.905Z,101059.13
2022-10-25T17:18:01.521Z,100799.25
2022-10-25T17:20:29.425Z,100539.41
2022-10-25T17:22:57.286Z,100799.25
2022-10-25T17:25:24.747Z,101059.13
2022-10-25T17:27:53.562Z,101059.13
2022-10-25T17:30:21.276Z,102358.75
2022-10-25T17:32:48.828Z,103398.78
2022-10-25T17:35:16.217Z,103658.84
2022-10-25T17:37:44.504Z,103918.91
2022-10-25T17:40:13.853Z,103918.91
2022-10-25T17:42:41.422Z,103398.78
2022-10-25T17:45:10.072Z,103138.75
2022-10-25T17:47:42.345Z,102618.72
2022-10-25T17:50:11.485Z,102098.78
2022-10-25T17:52:41.377Z,101578.91
2022-10-25T17:55:10.827Z,100799.25
2022-10-25T17:57:38.603Z,100279.59
2022-10-25T18:00:06.615Z,99760.00
2022-10-25T18:02:44.207Z,99240.47
2022-10-25T18:05:20.710Z,98721.03
2022-10-25T18:07:49.697Z,97942.03
2022-10-25T18:10:17.598Z,97422.78
2022-10-25T18:12:45.274Z,96903.63
2022-10-25T18:15:13.312Z,96384.53
2022-10-25T18:17:41.295Z,95606.03
2022-10-25T18:20:08.909Z,95087.13
2022-10-25T18:22:36.459Z,94568.31
2022-10-25T18:25:06.453Z,94049.59
2022-10-25T18:27:34.213Z,93790.25
2022-10-25T18:30:02.538Z,93271.63
2022-10-25T18:32:33.690Z,92753.06
2022-10-25T18:35:03.719Z,92234.59
2022-10-25T18:37:31.333Z,91975.41
2022-10-25T18:39:58.716Z,91975.41
2022-10-25T18:42:26.059Z,91716.22
2022-10-25T18:44:55.437Z,91457.03
2022-10-25T18:47:25.003Z,91457.03
2022-10-25T18:49:52.701Z,91197.91
2022-10-25T18:52:20.117Z,90938.78
2022-10-25T18:54:47.771Z,90420.56
2022-10-25T18:57:15.895Z,89643.41
2022-10-25T18:59:43.405Z,88089.66
2022-10-25T19:02:11.543Z,86795.38
2022-10-25T19:04:41.485Z,86019.03
2022-10-25T19:07:08.808Z,85501.56
2022-10-25T19:09:36.273Z,84725.53
2022-10-25T19:12:03.833Z,84208.25
2022-10-25T19:14:32.435Z,83432.50
2022-10-25T19:16:59.896Z,82915.44
2022-10-25T19:19:27.359Z,82656.94
2022-10-25T19:21:54.966Z,82139.97
2022-10-25T19:24:23.700Z,81881.53
2022-10-25T19:26:51.273Z,81623.09
2022-10-25T19:29:21.385Z,81106.28
2022-10-25T19:31:48.860Z,80847.91
2022-10-25T19:34:16.609Z,80072.94
2022-10-25T19:36:44.337Z,79814.63
2022-10-25T19:39:11.798Z,80072.94
2022-10-25T19:41:39.485Z,80072.94
2022-10-25T19:44:07.032Z,80072.94
2022-10-25T19:46:34.475Z,80589.56
2022-10-25T19:49:02.010Z,80589.56
2022-10-25T19:51:29.330Z,80072.94
2022-10-25T19:53:58.082Z,80331.25
2022-10-25T19:56:26.028Z,79814.63
2022-10-25T19:58:53.397Z,79814.63
2022-10-25T20:01:23.969Z,80072.94
2022-10-25T20:03:54.815Z,80331.25
2022-10-25T20:06:25.508Z,80331.25
2022-10-25T20:08:54.647Z,80589.56
2022-10-25T20:11:23.960Z,80847.91
2022-10-25T20:13:57.409Z,80589.56
2022-10-25T20:16:26.276Z,80847.91
2022-10-25T20:18:54.092Z,80847.91
2022-10-25T20:21:29.130Z,81364.69
2022-10-25T20:24:01.888Z,81364.69
2022-10-25T20:26:32.162Z,81623.09
2022-10-25T20:29:03.837Z,81881.53
2022-10-25T20:31:33.006Z,81881.53
2022-10-25T20:34:02.474Z,81881.53
2022-10-25T20:36:30.256Z,81623.09
2022-10-25T20:38:58.986Z,81623.09
2022-10-25T20:41:29.054Z,81106.28
2022-10-25T20:43:59.818Z,80589.56
2022-10-25T20:46:28.772Z,80331.25
2022-10-25T20:48:58.394Z,80072.94
2022-10-25T20:51:26.278Z,79556.34
2022-10-25T20:53:54.268Z,79298.09
2022-10-25T20:56:21.919Z,79039.88
2022-10-25T20:58:49.666Z,78781.66
2022-10-25T21:01:17.531Z,78523.44
2022-10-25T21:03:45.243Z,78523.44
2022-10-25T21:06:14.341Z,78781.66
2022-10-25T21:08:42.179Z,78523.44
2022-10-25T21:11:12.442Z,78523.44
2022-10-25T21:13:40.629Z,78523.44
2022-10-25T21:16:16.299Z,78523.44
2022-10-25T21:18:44.196Z,78265.28
2022-10-25T21:21:20.017Z,78265.28
2022-10-25T21:23:48.139Z,78265.28
2022-10-25T21:26:15.985Z,78007.13
2022-10-25T21:28:43.430Z,78265.28
2022-10-25T21:31:13.462Z,77748.97
2022-10-25T21:33:50.120Z,77748.97
2022-10-25T21:36:21.700Z,77232.75
2022-10-25T21:38:50.242Z,76974.69
2022-10-25T21:41:20.819Z,76716.63
2022-10-25T21:43:51.034Z,76974.69
2022-10-25T21:46:20.510Z,77232.75
2022-10-25T21:48:50.662Z,77490.88
2022-10-25T21:51:24.369Z,77232.75
2022-10-25T21:56:23.224Z,76716.63
2022-10-25T21:58:51.964Z,76974.69
2022-10-25T22:01:24.719Z,76974.69
2022-10-25T22:03:53.184Z,77232.75
2022-10-25T22:06:22.874Z,77490.88
2022-10-25T22:08:50.898Z,77490.88
2022-10-25T22:11:20.644Z,77232.75
2022-10-25T22:13:48.592Z,77232.75
2022-10-25T22:16:18.532Z,77490.88
2022-10-25T22:18:59.036Z,77490.88
2022-10-25T22:21:28.779Z,77490.88
2022-10-25T22:23:56.846Z,77490.88
2022-10-25T22:26:24.646Z,77748.97
2022-10-25T22:28:57.051Z,78007.13
2022-10-25T22:31:26.359Z,78265.28
2022-10-25T22:33:56.006Z,78265.28
2022-10-25T22:36:26.650Z,78265.28
2022-10-25T22:38:56.961Z,78781.66
2022-10-25T22:41:26.565Z,78523.44
2022-10-25T22:43:54.395Z,78523.44
2022-10-25T22:46:28.548Z,78523.44
2022-10-25T22:48:57.702Z,78781.66
2022-10-25T22:51:27.901Z,79039.88
2022-10-25T22:53:56.395Z,79039.88
2022-10-25T22:56:27.106Z,78781.66
2022-10-25T22:59:00.737Z,78523.44
2022-10-25T23:01:37.799Z,78007.13
2022-10-25T23:04:09.720Z,78007.13
2022-10-25T23:06:40.041Z,78007.13
2022-10-25T23:09:09.559Z,77748.97
2022-10-25T23:11:38.852Z,78523.44
2022-10-25T23:14:07.536Z,79556.34
2022-10-25T23:16:36.506Z,80072.94
2022-10-25T23:19:04.068Z,80331.25
2022-10-25T23:21:33.356Z,80589.56
2022-10-25T23:24:00.901Z,80589.56
2022-10-25T23:26:31.848Z,81106.28
2022-10-25T23:28:59.986Z,81364.69
2022-10-25T23:31:30.117Z,81623.09
2022-10-25T23:34:00.102Z,81623.09
2022-10-25T23:36:30.002Z,81881.53
2022-10-25T23:38:58.389Z,82139.97
2022-10-25T23:41:25.802Z,82139.97
2022-10-25T23:43:53.405Z,81881.53
2022-10-25T23:46:20.699Z,82139.97
2022-10-25T23:48:48.393Z,82398.44
2022-10-25T23:51:18.317Z,82398.44
2022-10-25T23:53:46.108Z,82656.94
2022-10-25T23:56:16.330Z,82656.94
2022-10-25T23:58:43.910Z,82915.44
